createdAt,value
2024-01-21T00:00:28.458Z,25.83
2024-01-21T00:03:17.889Z,21.00
2024-01-21T00:06:06.031Z,23.95
2024-01-21T00:08:53.687Z,23.02
2024-01-21T00:11:41.154Z,22.98
2024-01-21T00:14:28.786Z,21.42
2024-01-21T00:17:18.181Z,23.60
2024-01-21T00:20:08.608Z,24.30
2024-01-21T00:22:56.401Z,20.85
2024-01-21T00:25:43.962Z,26.15
2024-01-21T00:28:31.441Z,20.27
2024-01-21T00:31:19.003Z,20.15
2024-01-21T00:34:06.527Z,21.65
2024-01-21T00:36:55.465Z,20.98
2024-01-21T00:39:43.140Z,18.63
2024-01-21T00:42:30.670Z,21.45
2024-01-21T00:45:18.417Z,18.30
2024-01-21T00:48:07.949Z,21.05
2024-01-21T00:50:56.111Z,24.23
2024-01-21T00:53:46.038Z,22.33
2024-01-21T00:56:33.824Z,20.98
2024-01-21T00:59:21.330Z,17.75
2024-01-21T01:02:09.170Z,21.80
2024-01-21T01:04:57.130Z,22.00
2024-01-21T01:07:44.743Z,22.15
2024-01-21T01:10:33.463Z,21.13
2024-01-21T01:13:21.043Z,19.25
2024-01-21T01:16:09.264Z,20.92
2024-01-21T01:18:56.877Z,21.52
2024-01-21T01:21:44.347Z,19.67
2024-01-21T01:24:32.061Z,20.05
2024-01-21T01:27:21.046Z,23.42
2024-01-21T01:30:10.513Z,19.92
2024-01-21T01:32:58.128Z,22.90
2024-01-21T01:35:45.730Z,25.88
2024-01-21T01:38:33.237Z,23.35
2024-01-21T01:41:21.572Z,21.50
2024-01-21T01:44:10.468Z,18.85
2024-01-21T01:46:58.449Z,21.85
2024-01-21T01:49:46.196Z,23.63
2024-01-21T01:52:34.085Z,22.98
2024-01-21T01:55:22.197Z,20.60
2024-01-21T01:58:09.980Z,24.98
2024-01-21T02:00:59.895Z,22.25
2024-01-21T02:03:48.967Z,23.30
2024-01-21T02:06:36.936Z,21.83
2024-01-21T02:09:24.758Z,18.90
2024-01-21T02:12:15.636Z,20.48
2024-01-21T02:15:03.960Z,20.50
2024-01-21T02:17:53.118Z,21.73
2024-01-21T02:20:40.709Z,19.63
2024-01-21T02:23:30.136Z,19.20
2024-01-21T02:26:18.046Z,19.52
2024-01-21T02:29:05.629Z,21.60
2024-01-21T02:31:54.217Z,22.13
2024-01-21T02:34:41.760Z,17.33
2024-01-21T02:37:29.266Z,18.70
2024-01-21T02:40:18.357Z,18.27
2024-01-21T02:43:08.240Z,20.38
2024-01-21T02:45:55.740Z,17.15
2024-01-21T02:48:43.249Z,17.40
2024-01-21T02:51:31.901Z,17.48
2024-01-21T02:54:19.680Z,21.10
2024-01-21T02:57:08.713Z,18.50
2024-01-21T02:59:56.382Z,17.27
2024-01-21T03:02:44.104Z,16.88
2024-01-21T03:05:32.095Z,15.93
2024-01-21T03:08:19.392Z,13.55
2024-01-21T03:11:07.261Z,18.50
2024-01-21T03:13:56.376Z,14.70
2024-01-21T03:16:44.117Z,15.48
2024-01-21T03:19:31.893Z,18.17
2024-01-21T03:22:19.621Z,16.23
2024-01-21T03:25:08.026Z,17.00
2024-01-21T03:27:55.977Z,15.88
2024-01-21T03:30:45.333Z,13.65
2024-01-21T03:33:33.377Z,15.73
2024-01-21T03:36:20.990Z,14.63
2024-01-21T03:39:08.897Z,15.18
2024-01-21T03:41:56.927Z,13.23
2024-01-21T03:44:44.655Z,15.40
2024-01-21T03:47:33.881Z,15.88
2024-01-21T03:50:21.937Z,15.60
2024-01-21T03:53:09.373Z,13.43
2024-01-21T03:55:56.754Z,13.15
2024-01-21T03:58:44.356Z,15.40
2024-01-21T04:01:32.070Z,13.95
2024-01-21T04:04:20.968Z,15.07
2024-01-21T04:07:08.628Z,15.32
2024-01-21T04:09:56.447Z,15.85
2024-01-21T04:12:44.084Z,19.48
2024-01-21T04:15:31.625Z,12.38
2024-01-21T04:18:19.600Z,17.75
2024-01-21T04:21:08.551Z,13.98
2024-01-21T04:23:56.329Z,12.82
2024-01-21T04:26:43.857Z,15.48
2024-01-21T04:29:32.034Z,12.80
2024-01-21T04:32:20.180Z,15.00
2024-01-21T04:35:09.642Z,16.65
2024-01-21T04:38:00.469Z,11.95
2024-01-21T04:40:49.809Z,17.15
2024-01-21T04:43:37.140Z,14.77
2024-01-21T04:46:24.748Z,13.20
2024-01-21T04:49:12.209Z,17.40
2024-01-21T04:52:01.078Z,14.30
2024-01-21T04:54:50.179Z,16.25
2024-01-21T04:57:40.401Z,14.02
2024-01-21T05:00:28.110Z,16.20
2024-01-21T05:03:15.727Z,12.75
2024-01-21T05:06:04.311Z,15.57
2024-01-21T05:08:51.782Z,16.40
2024-01-21T05:11:40.983Z,17.30
2024-01-21T05:14:28.522Z,15.07
2024-01-21T05:17:16.036Z,15.95
2024-01-21T05:20:04.297Z,14.90
2024-01-21T05:22:52.575Z,15.23
2024-01-21T05:25:40.494Z,17.20
2024-01-21T05:28:29.565Z,14.65
2024-01-21T05:31:17.649Z,15.40
2024-01-21T05:34:05.570Z,15.95
2024-01-21T05:36:53.757Z,18.65
2024-01-21T05:39:41.512Z,15.80
2024-01-21T05:42:29.112Z,14.25
2024-01-21T05:45:17.942Z,13.60
2024-01-21T05:48:06.697Z,15.15
2024-01-21T05:50:54.586Z,14.85
2024-01-21T05:53:44.560Z,13.82
2024-01-21T05:56:31.799Z,15.20
2024-01-21T05:59:21.173Z,11.75
2024-01-21T06:02:11.964Z,16.17
2024-01-21T06:05:00.173Z,14.32
2024-01-21T06:07:47.612Z,13.43
2024-01-21T06:10:35.006Z,18.52
2024-01-21T06:13:22.487Z,14.25
2024-01-21T06:16:10.341Z,16.10
2024-01-21T06:18:59.559Z,14.32
2024-01-21T06:21:47.628Z,13.75
2024-01-21T06:24:40.322Z,15.15
2024-01-21T06:27:27.829Z,15.52
2024-01-21T06:30:18.671Z,17.17
2024-01-21T06:33:07.476Z,15.10
2024-01-21T06:35:56.602Z,19.70
2024-01-21T06:38:44.388Z,11.98
2024-01-21T06:41:31.963Z,16.15
2024-01-21T06:44:19.867Z,15.10
2024-01-21T06:47:07.329Z,12.02
2024-01-21T06:49:54.984Z,12.05
2024-01-21T06:52:44.216Z,13.32
2024-01-21T06:55:32.134Z,16.83
2024-01-21T06:58:20.173Z,15.75
2024-01-21T07:01:08.402Z,12.77
2024-01-21T07:03:56.473Z,13.35
2024-01-21T07:06:44.393Z,15.45
2024-01-21T07:09:33.969Z,14.43
2024-01-21T07:12:21.702Z,13.65
2024-01-21T07:15:11.058Z,17.48
2024-01-21T07:17:58.688Z,16.00
2024-01-21T07:20:46.371Z,12.77
2024-01-21T07:23:33.922Z,14.60
2024-01-21T07:26:24.562Z,16.60
2024-01-21T07:29:14.361Z,14.43
2024-01-21T07:32:02.053Z,17.10
2024-01-21T07:34:49.726Z,17.30
2024-01-21T07:37:37.757Z,14.65
2024-01-21T07:40:25.478Z,15.63
2024-01-21T07:43:14.277Z,13.32
2024-01-21T07:46:02.192Z,15.30
2024-01-21T07:48:49.684Z,17.13
2024-01-21T07:51:37.322Z,15.93
2024-01-21T07:54:25.159Z,16.60
2024-01-21T07:57:13.313Z,17.92
2024-01-21T08:00:04.196Z,13.82
2024-01-21T08:02:51.940Z,13.65
2024-01-21T08:05:39.960Z,16.42
2024-01-21T08:08:27.427Z,16.42
2024-01-21T08:11:15.148Z,14.52
2024-01-21T08:14:02.782Z,12.85
2024-01-21T08:16:51.617Z,14.18
2024-01-21T08:19:39.823Z,13.02
2024-01-21T08:22:27.583Z,14.18
2024-01-21T08:25:15.299Z,14.15
2024-01-21T08:28:03.828Z,23.50
2024-01-21T08:30:51.742Z,15.98
2024-01-21T08:33:41.006Z,15.73
2024-01-21T08:36:29.129Z,14.63
2024-01-21T08:39:16.612Z,13.38
2024-01-21T08:42:04.655Z,15.30
2024-01-21T08:44:52.827Z,15.00
2024-01-21T08:47:40.995Z,15.45
2024-01-21T08:50:30.031Z,14.95
2024-01-21T08:53:17.613Z,12.45
2024-01-21T08:56:06.036Z,11.88
2024-01-21T08:58:54.560Z,16.88
2024-01-21T09:01:42.409Z,16.17
2024-01-21T09:04:29.930Z,12.50
2024-01-21T09:07:19.319Z,15.90
2024-01-21T09:10:10.232Z,13.25
2024-01-21T09:12:58.038Z,12.70
2024-01-21T09:15:45.564Z,11.43
2024-01-21T09:18:33.363Z,11.73
2024-01-21T09:21:27.425Z,12.82
2024-01-21T09:24:22.686Z,13.57
2024-01-21T09:27:10.426Z,13.25
2024-01-21T09:29:57.753Z,11.13
2024-01-21T09:32:45.390Z,13.02
2024-01-21T09:35:32.968Z,16.67
2024-01-21T09:38:22.725Z,14.40
2024-01-21T09:41:27.884Z,12.98
2024-01-21T09:44:15.640Z,14.23
2024-01-21T09:47:04.353Z,14.60
2024-01-21T09:49:53.199Z,15.15
2024-01-21T09:52:40.669Z,15.90
2024-01-21T09:55:28.164Z,15.68
2024-01-21T09:58:18.568Z,13.73
2024-01-21T10:01:07.714Z,12.10
2024-01-21T10:03:56.805Z,14.38
2024-01-21T10:06:45.363Z,15.23
2024-01-21T10:09:35.152Z,13.77
2024-01-21T10:12:25.895Z,13.68
2024-01-21T10:15:16.525Z,13.02
2024-01-21T10:18:05.089Z,17.02
2024-01-21T10:20:54.333Z,17.85
2024-01-21T10:23:43.639Z,34.10
2024-01-21T10:26:31.267Z,16.00
2024-01-21T10:29:18.834Z,13.73
2024-01-21T10:32:10.490Z,16.27
2024-01-21T10:34:58.807Z,16.15
2024-01-21T10:37:46.899Z,15.00
2024-01-21T10:40:34.878Z,18.63
2024-01-21T10:43:24.353Z,17.90
2024-01-21T10:46:12.461Z,16.80
2024-01-21T10:49:02.330Z,16.10
2024-01-21T10:51:54.173Z,15.93
2024-01-21T10:54:44.055Z,17.05
2024-01-21T10:57:31.662Z,17.88
2024-01-21T11:00:20.785Z,20.15
2024-01-21T11:03:26.480Z,17.50
2024-01-21T11:06:17.040Z,17.20
2024-01-21T11:09:09.264Z,15.55
2024-01-21T11:11:57.530Z,18.70
2024-01-21T11:14:45.456Z,17.15
2024-01-21T11:17:34.888Z,21.48
2024-01-21T11:20:27.693Z,18.60
2024-01-21T11:23:19.793Z,19.27
2024-01-21T11:26:07.654Z,17.83
2024-01-21T11:28:55.560Z,19.05
2024-01-21T11:31:43.119Z,16.20
2024-01-21T11:34:39.510Z,18.75
2024-01-21T11:37:27.679Z,17.88
2024-01-21T11:40:16.744Z,17.73
2024-01-21T11:43:04.883Z,17.50
2024-01-21T11:45:52.706Z,16.98
2024-01-21T11:48:40.224Z,20.63
2024-01-21T11:51:27.883Z,16.00
2024-01-21T11:54:17.097Z,16.30
2024-01-21T11:57:07.031Z,18.02
2024-01-21T11:59:56.371Z,19.33
2024-01-21T12:02:44.556Z,20.02
2024-01-21T12:05:32.709Z,20.52
2024-01-21T12:08:20.612Z,19.17
2024-01-21T12:11:09.502Z,29.02
2024-01-21T12:13:58.647Z,19.17
2024-01-21T12:16:51.535Z,23.23
2024-01-21T12:19:39.680Z,18.77
2024-01-21T12:22:39.258Z,20.20
2024-01-21T12:25:27.652Z,17.48
2024-01-21T12:28:15.297Z,21.25
2024-01-21T12:31:04.555Z,22.23
2024-01-21T12:33:53.006Z,20.45
2024-01-21T12:36:46.082Z,21.35
2024-01-21T12:39:35.430Z,20.77
2024-01-21T12:42:23.356Z,20.48
2024-01-21T12:45:12.968Z,22.20
2024-01-21T12:48:02.015Z,20.80
2024-01-21T12:50:49.545Z,20.55
2024-01-21T12:53:36.996Z,24.15
2024-01-21T12:56:26.066Z,22.63
2024-01-21T12:59:14.858Z,22.80
2024-01-21T13:02:02.717Z,22.83
2024-01-21T13:04:51.737Z,22.80
2024-01-21T13:07:39.737Z,23.02
2024-01-21T13:10:27.544Z,20.45
2024-01-21T13:13:15.068Z,21.20
2024-01-21T13:16:03.337Z,18.13
2024-01-21T13:18:51.249Z,20.77
2024-01-21T13:21:40.958Z,18.58
2024-01-21T13:24:28.812Z,19.15
2024-01-21T13:27:27.763Z,20.20
2024-01-21T13:30:33.434Z,20.10
2024-01-21T13:33:23.619Z,19.35
2024-01-21T13:36:11.348Z,18.50
2024-01-21T13:39:00.980Z,21.92
2024-01-21T13:41:48.625Z,20.20
2024-01-21T13:44:36.301Z,22.55
2024-01-21T13:47:24.011Z,23.13
2024-01-21T13:50:11.844Z,18.95
2024-01-21T13:53:00.951Z,23.48
2024-01-21T13:55:50.340Z,19.65
2024-01-21T13:58:37.940Z,17.85
2024-01-21T14:01:26.053Z,22.02
2024-01-21T14:04:13.799Z,20.70
2024-01-21T14:07:01.990Z,18.73
2024-01-21T14:09:49.979Z,17.70
2024-01-21T14:12:39.497Z,17.65
2024-01-21T14:15:27.516Z,18.63
2024-01-21T14:18:15.173Z,19.27
2024-01-21T14:21:03.098Z,18.05
2024-01-21T14:23:50.524Z,15.18
2024-01-21T14:26:42.142Z,17.58
2024-01-21T14:29:37.765Z,18.02
2024-01-21T14:32:25.521Z,15.25
2024-01-21T14:35:14.102Z,17.60
2024-01-21T14:38:02.060Z,15.57
2024-01-21T14:40:52.158Z,15.10
2024-01-21T14:43:39.987Z,17.67
2024-01-21T14:46:28.994Z,18.25
2024-01-21T14:49:17.189Z,17.85
2024-01-21T14:52:07.008Z,19.30
2024-01-21T14:54:55.580Z,22.60
2024-01-21T14:57:45.475Z,16.48
2024-01-21T15:00:34.142Z,18.13
2024-01-21T15:03:23.058Z,16.90
2024-01-21T15:06:11.805Z,16.85
2024-01-21T15:09:00.069Z,15.98
2024-01-21T15:11:47.805Z,18.42
2024-01-21T15:14:41.608Z,17.95
2024-01-21T15:17:31.089Z,19.13
2024-01-21T15:20:20.380Z,16.42
2024-01-21T15:23:09.500Z,16.85
2024-01-21T15:26:01.011Z,17.83
2024-01-21T15:28:48.881Z,15.07
2024-01-21T15:31:36.774Z,18.08
2024-01-21T15:34:24.604Z,16.80
2024-01-21T15:37:13.803Z,19.83
2024-01-21T15:40:01.441Z,22.50
2024-01-21T15:42:49.370Z,18.85
2024-01-21T15:45:36.799Z,17.25
2024-01-21T15:48:24.311Z,18.50
2024-01-21T15:51:14.100Z,20.13
2024-01-21T15:54:03.434Z,18.38
2024-01-21T15:56:51.058Z,23.65
2024-01-21T15:59:38.689Z,19.13
2024-01-21T16:02:26.651Z,17.08
2024-01-21T16:05:15.292Z,17.88
2024-01-21T16:08:03.325Z,18.67
2024-01-21T16:10:52.157Z,17.40
2024-01-21T16:13:40.520Z,22.88
2024-01-21T16:16:29.285Z,21.25
2024-01-21T16:19:17.463Z,20.73
2024-01-21T16:22:06.401Z,17.48
2024-01-21T16:24:54.205Z,19.40
2024-01-21T16:27:43.417Z,18.05
2024-01-21T16:30:32.019Z,17.10
2024-01-21T16:33:23.673Z,17.23
2024-01-21T16:36:11.795Z,17.73
2024-01-21T16:39:00.273Z,17.33
2024-01-21T16:41:47.817Z,15.05
2024-01-21T16:44:36.982Z,18.83
2024-01-21T16:47:24.530Z,17.45
2024-01-21T16:50:12.622Z,15.57
2024-01-21T16:53:09.796Z,17.80
2024-01-21T16:55:57.612Z,20.90
2024-01-21T16:58:45.150Z,21.92
2024-01-21T17:01:36.788Z,24.50
2024-01-21T17:04:25.145Z,21.15
2024-01-21T17:07:13.251Z,23.00
2024-01-21T17:10:01.539Z,21.67
2024-01-21T17:12:49.242Z,18.10
2024-01-21T17:15:36.737Z,17.88
2024-01-21T17:18:40.070Z,23.42
2024-01-21T17:21:28.000Z,19.42
2024-01-21T17:24:15.582Z,22.25
2024-01-21T17:27:03.781Z,20.10
2024-01-21T17:29:51.994Z,20.20
2024-01-21T17:32:40.026Z,28.40
2024-01-21T17:35:29.378Z,21.48
2024-01-21T17:38:19.055Z,21.85
2024-01-21T17:41:06.943Z,20.80
2024-01-21T17:43:54.361Z,20.25
2024-01-21T17:46:43.097Z,19.95
2024-01-21T17:49:31.183Z,20.58
2024-01-21T17:52:20.059Z,22.98
2024-01-21T17:55:08.230Z,21.15
2024-01-21T17:57:55.748Z,22.63
2024-01-21T18:00:44.739Z,20.25
2024-01-21T18:03:32.896Z,22.88
2024-01-21T18:06:22.122Z,20.85
2024-01-21T18:09:13.782Z,19.13
2024-01-21T18:12:08.500Z,22.85
2024-01-21T18:14:56.498Z,23.20
2024-01-21T18:17:44.243Z,20.63
2024-01-21T18:20:32.213Z,22.02
2024-01-21T18:23:19.907Z,20.08
2024-01-21T18:26:09.014Z,22.67
2024-01-21T18:29:09.806Z,23.42
2024-01-21T18:32:06.720Z,19.95
2024-01-21T18:34:55.557Z,23.17
2024-01-21T18:37:43.818Z,23.67
2024-01-21T18:40:31.732Z,20.50
2024-01-21T18:43:20.839Z,19.75
2024-01-21T18:46:08.734Z,22.42
2024-01-21T18:48:56.452Z,21.55
2024-01-21T18:51:44.184Z,19.33
2024-01-21T18:54:33.889Z,20.75
2024-01-21T18:57:22.000Z,20.08
2024-01-21T19:00:12.996Z,20.98
2024-01-21T19:03:00.975Z,20.70
2024-01-21T19:05:48.569Z,23.65
2024-01-21T19:08:35.930Z,19.83
2024-01-21T19:11:23.897Z,23.50
2024-01-21T19:14:11.419Z,22.95
2024-01-21T19:17:00.358Z,21.83
2024-01-21T19:19:47.844Z,26.25
2024-01-21T19:22:35.521Z,19.58
2024-01-21T19:25:23.216Z,23.33
2024-01-21T19:28:10.625Z,22.92
2024-01-21T19:30:58.277Z,21.75
2024-01-21T19:33:48.016Z,20.70
2024-01-21T19:36:35.937Z,21.65
2024-01-21T19:39:24.568Z,22.80
2024-01-21T19:42:12.297Z,19.92
2024-01-21T19:44:59.931Z,24.85
2024-01-21T19:47:47.651Z,19.92
2024-01-21T19:50:36.552Z,20.30
2024-01-21T19:53:26.466Z,21.00
2024-01-21T19:56:14.315Z,21.65
2024-01-21T19:59:01.955Z,21.02
2024-01-21T20:01:49.527Z,19.98
2024-01-21T20:04:37.047Z,21.70
2024-01-21T20:07:25.895Z,22.45
2024-01-21T20:10:13.834Z,21.92
2024-01-21T20:13:01.811Z,22.52
2024-01-21T20:15:49.533Z,20.27
2024-01-21T20:18:39.410Z,18.40
2024-01-21T20:21:27.508Z,20.55
2024-01-21T20:24:16.604Z,22.70
2024-01-21T20:27:04.206Z,20.13
2024-01-21T20:29:53.289Z,19.98
2024-01-21T20:32:41.006Z,22.50
2024-01-21T20:35:28.826Z,24.05
2024-01-21T20:38:16.361Z,22.48
2024-01-21T20:41:09.650Z,22.27
2024-01-21T20:43:57.613Z,22.67
2024-01-21T20:46:45.152Z,24.00
2024-01-21T20:49:32.870Z,19.88
2024-01-21T20:52:20.343Z,21.40
2024-01-21T20:55:08.767Z,19.17
2024-01-21T20:57:58.081Z,21.08
2024-01-21T21:00:57.065Z,20.23
2024-01-21T21:03:53.837Z,21.10
2024-01-21T21:06:41.761Z,18.17
2024-01-21T21:09:29.477Z,18.73
2024-01-21T21:12:17.917Z,23.13
2024-01-21T21:15:09.151Z,20.80
2024-01-21T21:17:58.584Z,19.50
2024-01-21T21:20:46.783Z,24.30
2024-01-21T21:23:34.790Z,19.98
2024-01-21T21:26:22.591Z,19.58
2024-01-21T21:29:11.201Z,20.25
2024-01-21T21:32:00.208Z,19.98
2024-01-21T21:34:49.429Z,18.30
2024-01-21T21:37:36.834Z,21.55
2024-01-21T21:40:24.594Z,16.42
2024-01-21T21:43:12.469Z,17.45
2024-01-21T21:46:00.071Z,19.38
2024-01-21T21:48:49.737Z,20.58
2024-01-21T21:51:38.133Z,17.13
2024-01-21T21:54:27.912Z,20.48
2024-01-21T21:57:16.368Z,17.35
2024-01-21T22:00:05.375Z,19.35
2024-01-21T22:02:54.624Z,16.42
2024-01-21T22:05:44.667Z,14.98
2024-01-21T22:08:34.093Z,18.48
2024-01-21T22:11:23.166Z,15.85
2024-01-21T22:14:12.537Z,16.50
2024-01-21T22:17:00.176Z,18.58
2024-01-21T22:19:48.128Z,15.95
2024-01-21T22:22:38.418Z,16.95
2024-01-21T22:25:26.178Z,14.63
2024-01-21T22:28:14.098Z,18.38
2024-01-21T22:31:01.620Z,17.27
2024-01-21T22:33:49.263Z,15.30
2024-01-21T22:36:36.985Z,14.10
2024-01-21T22:39:26.002Z,13.75
2024-01-21T22:42:13.772Z,15.27
2024-01-21T22:45:01.599Z,14.05
2024-01-21T22:47:49.719Z,16.27
2024-01-21T22:50:37.883Z,12.27
2024-01-21T22:53:25.290Z,13.57
2024-01-21T22:56:14.092Z,15.80
2024-01-21T22:59:01.773Z,16.02
2024-01-21T23:01:50.504Z,14.98
2024-01-21T23:04:38.726Z,13.65
2024-01-21T23:07:26.441Z,14.73
2024-01-21T23:10:14.448Z,14.23
2024-01-21T23:13:03.318Z,13.65
2024-01-21T23:15:51.282Z,12.68
2024-01-21T23:18:38.825Z,13.15
2024-01-21T23:21:26.679Z,12.85
2024-01-21T23:24:14.190Z,15.35
2024-01-21T23:27:01.948Z,12.68
2024-01-21T23:29:50.893Z,12.70
2024-01-21T23:32:38.797Z,15.40
2024-01-21T23:35:26.680Z,13.23
2024-01-21T23:38:14.055Z,12.40
2024-01-21T23:41:01.617Z,12.45
2024-01-21T23:43:49.207Z,14.13
2024-01-21T23:46:37.904Z,13.75
2024-01-21T23:49:25.251Z,13.40
2024-01-21T23:52:12.752Z,12.02
2024-01-21T23:55:00.289Z,15.48
2024-01-21T23:57:47.779Z,11.43
